createdAt,value
2019-05-07T00:02:24.277Z,6.50
2019-05-07T00:04:55.731Z,6.50
2019-05-07T00:07:29.227Z,6.63
2019-05-07T00:10:03.386Z,7.07
2019-05-07T00:12:32.849Z,6.97
2019-05-07T00:15:04.658Z,7.23
2019-05-07T00:17:33.286Z,6.80
2019-05-07T00:20:08.526Z,6.67
2019-05-07T00:22:37.417Z,6.73
2019-05-07T00:25:12.392Z,6.87
2019-05-07T00:27:44.619Z,7.00
2019-05-07T00:30:16.069Z,7.33
2019-05-07T00:32:47.640Z,6.93
2019-05-07T00:35:32.292Z,7.07
2019-05-07T00:38:05.683Z,6.60
2019-05-07T00:40:44.885Z,7.40
2019-05-07T00:43:15.540Z,7.67
2019-05-07T00:45:52.926Z,7.37
2019-05-07T00:48:23.432Z,7.20
2019-05-07T00:50:57.368Z,6.87
2019-05-07T00:53:26.467Z,7.17
2019-05-07T00:55:57.914Z,7.63
2019-05-07T00:58:32.641Z,7.23
2019-05-07T01:01:04.705Z,8.20
2019-05-07T01:03:36.155Z,8.17
2019-05-07T01:06:06.172Z,7.80
2019-05-07T01:08:42.958Z,7.90
2019-05-07T01:11:13.188Z,8.23
2019-05-07T01:13:43.184Z,8.77
2019-05-07T01:16:17.907Z,7.40
2019-05-07T01:18:49.978Z,8.40
2019-05-07T01:21:19.870Z,7.87
2019-05-07T01:23:54.823Z,8.27
2019-05-07T01:26:23.693Z,8.03
2019-05-07T01:29:02.863Z,8.10
2019-05-07T01:31:37.136Z,8.73
2019-05-07T01:34:07.692Z,8.70
2019-05-07T01:36:38.505Z,8.03
2019-05-07T01:39:09.953Z,9.27
2019-05-07T01:41:45.190Z,9.90
2019-05-07T01:44:17.282Z,8.10
2019-05-07T01:46:49.449Z,8.77
2019-05-07T01:49:21.001Z,8.63
2019-05-07T01:51:53.022Z,9.17
2019-05-07T01:54:24.107Z,8.67
2019-05-07T01:56:53.847Z,8.17
2019-05-07T01:59:23.612Z,9.47
2019-05-07T02:01:56.926Z,9.90
2019-05-07T02:04:32.544Z,9.53
2019-05-07T02:07:17.029Z,9.43
2019-05-07T02:09:51.786Z,9.17
2019-05-07T02:12:22.229Z,8.97
2019-05-07T02:14:53.071Z,8.77
2019-05-07T02:17:23.740Z,9.70
2019-05-07T02:19:55.822Z,9.47
2019-05-07T02:22:32.027Z,8.90
2019-05-07T02:25:03.831Z,9.00
2019-05-07T02:27:33.623Z,9.07
2019-05-07T02:30:04.251Z,9.60
2019-05-07T02:32:36.248Z,9.77
2019-05-07T02:35:08.077Z,10.37
2019-05-07T02:37:48.262Z,8.73
2019-05-07T02:40:22.692Z,10.10
2019-05-07T02:42:53.970Z,9.10
2019-05-07T02:45:29.575Z,9.10
2019-05-07T02:47:59.590Z,8.30
2019-05-07T02:50:35.746Z,9.77
2019-05-07T02:53:27.373Z,9.60
2019-05-07T02:56:03.329Z,8.77
2019-05-07T02:58:33.147Z,9.10
2019-05-07T03:01:04.785Z,10.13
2019-05-07T03:03:34.591Z,9.70
2019-05-07T03:06:09.228Z,9.67
2019-05-07T03:08:43.862Z,10.23
2019-05-07T03:11:14.132Z,10.00
2019-05-07T03:13:44.898Z,9.87
2019-05-07T03:16:13.785Z,9.90
2019-05-07T03:18:43.798Z,10.10
2019-05-07T03:21:17.319Z,10.90
2019-05-07T03:23:54.064Z,9.73
2019-05-07T03:26:33.940Z,9.20
2019-05-07T03:29:04.020Z,10.17
2019-05-07T03:31:47.376Z,10.00
2019-05-07T03:34:18.335Z,9.63
2019-05-07T03:36:56.462Z,10.00
2019-05-07T03:39:24.082Z,10.23
2019-05-07T03:41:53.278Z,9.97
2019-05-07T03:44:33.863Z,9.83
2019-05-07T03:47:16.896Z,10.17
2019-05-07T03:49:48.738Z,10.30
2019-05-07T03:52:18.752Z,9.83
2019-05-07T03:54:47.510Z,10.67
2019-05-07T03:57:23.763Z,10.27
2019-05-07T04:00:04.192Z,10.00
2019-05-07T04:02:33.367Z,10.53
2019-05-07T04:05:04.372Z,10.13
2019-05-07T04:07:33.562Z,11.17
2019-05-07T04:10:10.126Z,11.53
2019-05-07T04:12:39.359Z,10.00
2019-05-07T04:15:19.530Z,10.43
2019-05-07T04:17:53.591Z,11.13
2019-05-07T04:20:36.879Z,10.50
2019-05-07T04:23:05.751Z,10.97
2019-05-07T04:25:58.391Z,11.27
2019-05-07T04:28:29.051Z,12.03
2019-05-07T04:31:02.930Z,10.83
2019-05-07T04:33:39.458Z,13.83
2019-05-07T04:36:14.102Z,12.20
2019-05-07T04:38:45.837Z,10.97
2019-05-07T04:41:14.609Z,10.13
2019-05-07T04:43:43.755Z,10.03
2019-05-07T04:46:18.485Z,10.30
2019-05-07T04:48:47.318Z,10.70
2019-05-07T04:51:17.793Z,10.87
2019-05-07T04:53:46.557Z,10.63
2019-05-07T04:56:15.447Z,10.53
2019-05-07T04:58:45.241Z,9.60
2019-05-07T05:01:15.691Z,10.63
2019-05-07T05:03:44.524Z,10.70
2019-05-07T05:06:13.841Z,11.50
2019-05-07T05:08:43.656Z,11.13
2019-05-07T05:11:13.040Z,11.77
2019-05-07T05:13:44.524Z,11.77
2019-05-07T05:16:27.410Z,12.13
2019-05-07T05:19:02.547Z,11.40
2019-05-07T05:21:52.849Z,12.17
2019-05-07T05:24:35.242Z,11.63
2019-05-07T05:27:06.692Z,11.63
2019-05-07T05:29:39.280Z,12.07
2019-05-07T05:32:13.998Z,11.90
2019-05-07T05:34:45.434Z,11.33
2019-05-07T05:37:17.284Z,10.97
2019-05-07T05:40:04.861Z,12.50
2019-05-07T05:42:29.838Z,11.43
2019-05-07T05:44:58.700Z,12.17
2019-05-07T05:47:28.746Z,11.60
2019-05-07T05:49:57.532Z,10.67
2019-05-07T05:52:28.968Z,11.90
2019-05-07T05:54:59.409Z,11.50
2019-05-07T05:57:32.117Z,12.33
2019-05-07T06:00:04.628Z,12.37
2019-05-07T06:02:54.429Z,11.40
2019-05-07T06:05:41.608Z,11.70
2019-05-07T06:08:28.583Z,12.63
2019-05-07T06:11:14.440Z,11.87
2019-05-07T06:13:52.666Z,11.27
2019-05-07T06:16:29.138Z,11.93
2019-05-07T06:19:08.679Z,13.27
2019-05-07T06:21:55.490Z,13.23
2019-05-07T06:24:37.759Z,12.07
2019-05-07T06:27:07.721Z,11.43
2019-05-07T06:29:37.624Z,11.33
2019-05-07T06:32:13.964Z,12.23
2019-05-07T06:34:48.596Z,11.70
2019-05-07T06:37:20.066Z,11.33
2019-05-07T06:40:05.217Z,11.57
2019-05-07T06:42:42.781Z,11.93
2019-05-07T06:45:16.264Z,11.73
2019-05-07T06:47:45.104Z,12.33
2019-05-07T06:50:13.988Z,12.10
2019-05-07T06:52:42.813Z,12.10
2019-05-07T06:55:14.848Z,12.27
2019-05-07T06:57:43.681Z,11.87
2019-05-07T07:00:16.032Z,11.43
2019-05-07T07:03:05.817Z,12.33
2019-05-07T07:05:36.355Z,12.03
2019-05-07T07:08:17.641Z,11.60
2019-05-07T07:11:04.749Z,11.10
2019-05-07T07:13:33.668Z,10.90
2019-05-07T07:16:02.479Z,11.90
2019-05-07T07:18:48.605Z,12.63
2019-05-07T07:21:13.247Z,12.83
2019-05-07T07:23:42.994Z,11.23
2019-05-07T07:26:12.645Z,9.60
2019-05-07T07:28:42.974Z,10.57
2019-05-07T07:31:29.050Z,9.90
2019-05-07T07:34:01.959Z,10.43
2019-05-07T07:36:32.143Z,10.83
2019-05-07T07:39:02.075Z,10.23
2019-05-07T07:41:33.705Z,10.40
2019-05-07T07:44:05.171Z,9.90
2019-05-07T07:46:42.280Z,9.60
2019-05-07T07:49:14.946Z,10.57
2019-05-07T07:51:45.175Z,9.50
2019-05-07T07:54:13.088Z,9.40
2019-05-07T07:57:02.378Z,8.93
2019-05-07T07:59:42.118Z,10.40
2019-05-07T08:02:18.031Z,9.53
2019-05-07T08:04:46.856Z,9.53
2019-05-07T08:07:22.847Z,8.70
2019-05-07T08:09:52.098Z,9.37
2019-05-07T08:12:22.169Z,8.70
2019-05-07T08:14:51.981Z,9.13
2019-05-07T08:17:22.520Z,8.93
2019-05-07T08:19:52.679Z,8.90
2019-05-07T08:22:22.570Z,9.80
2019-05-07T08:24:54.762Z,8.20
2019-05-07T08:27:29.360Z,8.50
2019-05-07T08:29:58.149Z,8.83
2019-05-07T08:32:44.777Z,8.17
2019-05-07T08:35:23.605Z,7.20
2019-05-07T08:37:55.519Z,8.23
2019-05-07T08:40:24.371Z,8.73
2019-05-07T08:42:56.631Z,7.53
2019-05-07T08:45:43.404Z,8.80
2019-05-07T08:48:16.496Z,8.43
2019-05-07T08:50:45.433Z,9.03
2019-05-07T08:53:17.282Z,7.87
2019-05-07T08:55:46.048Z,8.17
2019-05-07T08:58:17.941Z,8.07
2019-05-07T09:00:49.375Z,7.87
2019-05-07T09:03:39.108Z,7.90
2019-05-07T09:06:07.936Z,7.13
2019-05-07T09:08:37.755Z,6.53
2019-05-07T09:11:09.171Z,8.87
2019-05-07T09:13:37.988Z,5.77
2019-05-07T09:16:06.757Z,6.40
2019-05-07T09:18:35.524Z,6.53
2019-05-07T09:21:04.360Z,6.43
2019-05-07T09:23:38.984Z,6.43
2019-05-07T09:26:13.028Z,5.20
2019-05-07T09:28:59.877Z,5.27
2019-05-07T09:31:33.111Z,5.47
2019-05-07T09:34:02.640Z,4.77
2019-05-07T09:36:42.462Z,4.97
2019-05-07T09:39:12.124Z,4.60
2019-05-07T09:41:41.786Z,4.17
2019-05-07T09:44:11.925Z,4.77
2019-05-07T09:46:42.914Z,4.93
2019-05-07T09:49:12.059Z,4.10
2019-05-07T09:51:42.700Z,5.70
2019-05-07T09:54:17.493Z,5.80
2019-05-07T09:56:49.746Z,5.20
2019-05-07T09:59:22.545Z,5.77
2019-05-07T10:01:57.557Z,5.77
2019-05-07T10:04:29.031Z,6.20
2019-05-07T10:07:02.561Z,6.27
2019-05-07T10:09:37.260Z,6.63
2019-05-07T10:12:28.955Z,4.97
2019-05-07T10:14:57.953Z,5.60
2019-05-07T10:17:28.605Z,5.63
2019-05-07T10:20:03.138Z,5.63
2019-05-07T10:22:34.376Z,4.60
2019-05-07T10:25:09.001Z,4.63
2019-05-07T10:27:41.823Z,4.53
2019-05-07T10:30:12.636Z,5.57
2019-05-07T10:32:42.188Z,4.63
2019-05-07T10:35:13.078Z,4.37
2019-05-07T10:37:42.808Z,4.27
2019-05-07T10:40:12.589Z,4.40
2019-05-07T10:42:43.059Z,4.90
2019-05-07T10:45:26.095Z,4.57
2019-05-07T10:47:56.484Z,4.13
2019-05-07T10:50:37.959Z,3.90
2019-05-07T10:52:57.382Z,4.30
2019-05-07T10:55:26.156Z,4.37
2019-05-07T10:57:54.916Z,4.20
2019-05-07T11:00:26.446Z,5.37
2019-05-07T11:02:58.220Z,4.90
2019-05-07T11:05:27.027Z,5.03
2019-05-07T11:07:55.851Z,5.77
2019-05-07T11:10:24.617Z,4.87
2019-05-07T11:13:02.111Z,5.40
2019-05-07T11:15:35.367Z,4.27
2019-05-07T11:18:22.205Z,4.40
2019-05-07T11:20:53.334Z,4.37
2019-05-07T11:23:22.243Z,4.63
2019-05-07T11:25:52.676Z,4.80
2019-05-07T11:28:22.678Z,4.80
2019-05-07T11:30:52.635Z,5.60
2019-05-07T11:33:22.042Z,4.23
2019-05-07T11:35:52.790Z,4.13
2019-05-07T11:38:24.997Z,4.17
2019-05-07T11:40:55.956Z,5.10
2019-05-07T11:43:26.367Z,4.90
2019-05-07T11:45:58.940Z,4.80
2019-05-07T11:48:28.122Z,4.30
2019-05-07T11:51:03.689Z,4.53
2019-05-07T11:53:32.724Z,4.63
2019-05-07T11:56:02.579Z,4.13
2019-05-07T11:58:37.495Z,3.93
2019-05-07T12:01:08.895Z,4.97
2019-05-07T12:03:43.412Z,4.50
2019-05-07T12:06:13.236Z,4.67
2019-05-07T12:08:49.818Z,4.43
2019-05-07T12:11:18.189Z,5.10
2019-05-07T12:13:47.033Z,5.13
2019-05-07T12:16:15.804Z,5.17
2019-05-07T12:18:44.643Z,4.43
2019-05-07T12:21:21.105Z,4.70
2019-05-07T12:23:48.026Z,4.63
2019-05-07T12:26:16.894Z,4.63
2019-05-07T12:28:45.672Z,4.70
2019-05-07T12:31:16.079Z,5.23
2019-05-07T12:33:49.485Z,4.17
2019-05-07T12:36:24.232Z,5.00
2019-05-07T12:38:55.027Z,4.83
2019-05-07T12:41:34.125Z,4.57
2019-05-07T12:44:06.051Z,4.77
2019-05-07T12:46:35.040Z,4.50
2019-05-07T12:49:11.768Z,4.30
2019-05-07T12:51:42.703Z,5.07
2019-05-07T12:54:20.242Z,5.90
2019-05-07T12:56:55.088Z,4.80
2019-05-07T12:59:23.900Z,5.17
2019-05-07T13:01:54.359Z,5.20
2019-05-07T13:04:25.760Z,4.73
2019-05-07T13:06:58.724Z,5.40
2019-05-07T13:09:27.571Z,5.00
2019-05-07T13:12:03.006Z,5.53
2019-05-07T13:14:34.067Z,5.57
2019-05-07T13:17:05.489Z,5.33
2019-05-07T13:19:34.261Z,5.20
2019-05-07T13:22:03.100Z,5.47
2019-05-07T13:24:32.857Z,5.33
2019-05-07T13:27:03.303Z,5.33
2019-05-07T13:29:37.956Z,5.37
2019-05-07T13:32:09.364Z,5.30
2019-05-07T13:34:38.140Z,6.37
2019-05-07T13:37:17.596Z,5.93
2019-05-07T13:39:52.038Z,6.67
2019-05-07T13:42:38.532Z,6.70
2019-05-07T13:45:11.954Z,5.93
2019-05-07T13:47:44.236Z,6.63
2019-05-07T13:50:13.975Z,6.10
2019-05-07T13:52:43.440Z,6.03
2019-05-07T13:55:12.942Z,6.23
2019-05-07T13:57:41.784Z,6.80
2019-05-07T14:00:13.109Z,6.13
2019-05-07T14:02:42.882Z,6.57
2019-05-07T14:05:14.523Z,6.03
2019-05-07T14:07:49.371Z,6.60
2019-05-07T14:10:24.194Z,5.90
2019-05-07T14:12:53.093Z,5.43
2019-05-07T14:15:27.818Z,6.50
2019-05-07T14:18:02.417Z,6.90
2019-05-07T14:20:33.067Z,8.17
2019-05-07T14:23:01.855Z,6.67
2019-05-07T14:25:33.681Z,6.53
2019-05-07T14:28:02.468Z,6.70
2019-05-07T14:30:32.773Z,7.23
2019-05-07T14:33:08.340Z,7.17
2019-05-07T14:35:45.611Z,7.17
2019-05-07T14:38:22.669Z,5.90
2019-05-07T14:40:52.041Z,6.50
2019-05-07T14:43:25.291Z,6.93
2019-05-07T14:45:54.239Z,7.50
2019-05-07T14:48:23.023Z,6.50
2019-05-07T14:50:53.079Z,7.23
2019-05-07T14:53:22.562Z,7.43
2019-05-07T14:55:51.344Z,6.83
2019-05-07T14:58:26.065Z,6.33
2019-05-07T15:00:57.596Z,6.40
2019-05-07T15:03:26.363Z,6.67
2019-05-07T15:05:55.356Z,5.90
2019-05-07T15:08:24.188Z,6.10
2019-05-07T15:10:59.238Z,6.20
2019-05-07T15:13:28.315Z,6.20
2019-05-07T15:16:03.200Z,6.07
2019-05-07T15:18:42.805Z,6.50
2019-05-07T15:21:12.539Z,6.97
2019-05-07T15:23:43.969Z,5.73
2019-05-07T15:26:43.372Z,6.73
2019-05-07T15:29:15.434Z,6.77
2019-05-07T15:32:00.813Z,6.60
2019-05-07T15:34:29.648Z,6.30
2019-05-07T15:37:01.657Z,6.40
2019-05-07T15:39:36.503Z,7.73
2019-05-07T15:42:05.676Z,7.50
2019-05-07T15:44:34.455Z,6.67
2019-05-07T15:47:04.921Z,6.70
2019-05-07T15:49:33.904Z,6.77
2019-05-07T15:52:04.333Z,7.13
2019-05-07T15:54:35.166Z,7.47
2019-05-07T15:57:08.587Z,6.00
2019-05-07T15:59:41.805Z,6.73
2019-05-07T16:02:24.792Z,6.33
2019-05-07T16:04:53.608Z,6.67
2019-05-07T16:07:22.608Z,6.77
2019-05-07T16:09:57.506Z,7.00
2019-05-07T16:12:26.341Z,7.10
2019-05-07T16:14:55.129Z,6.87
2019-05-07T16:17:27.706Z,6.97
2019-05-07T16:20:03.130Z,6.83
2019-05-07T16:22:35.009Z,6.40
2019-05-07T16:25:07.170Z,7.07
2019-05-07T16:27:36.444Z,7.47
2019-05-07T16:30:06.976Z,7.27
2019-05-07T16:32:35.746Z,7.93
2019-05-07T16:35:05.860Z,6.40
2019-05-07T16:37:37.296Z,7.03
2019-05-07T16:40:08.709Z,7.30
2019-05-07T16:42:38.147Z,7.07
2019-05-07T16:45:09.113Z,7.47
2019-05-07T16:47:37.986Z,8.27
2019-05-07T16:50:08.025Z,7.50
2019-05-07T16:52:36.966Z,8.30
2019-05-07T16:55:12.097Z,7.00
2019-05-07T16:57:44.705Z,6.83
2019-05-07T17:00:15.432Z,8.13
2019-05-07T17:02:51.566Z,7.47
2019-05-07T17:05:22.843Z,7.03
2019-05-07T17:07:56.003Z,7.20
2019-05-07T17:10:27.482Z,7.97
2019-05-07T17:13:17.644Z,7.00
2019-05-07T17:15:59.269Z,7.97
2019-05-07T17:18:34.001Z,7.80
2019-05-07T17:21:03.901Z,8.20
2019-05-07T17:23:43.930Z,7.97
2019-05-07T17:26:12.206Z,8.03
2019-05-07T17:28:42.578Z,6.87
2019-05-07T17:31:12.415Z,7.63
2019-05-07T17:33:42.481Z,7.37
2019-05-07T17:36:12.071Z,7.43
2019-05-07T17:38:42.872Z,7.10
2019-05-07T17:41:19.907Z,8.47
2019-05-07T17:43:42.239Z,8.50
2019-05-07T17:46:12.286Z,7.80
2019-05-07T17:48:42.808Z,7.13
2019-05-07T17:51:16.572Z,7.27
2019-05-07T17:53:57.573Z,6.60
2019-05-07T17:56:22.755Z,7.47
2019-05-07T17:58:57.371Z,7.73
2019-05-07T18:01:32.673Z,6.87
2019-05-07T18:04:07.161Z,7.70
2019-05-07T18:06:38.636Z,6.47
2019-05-07T18:09:07.743Z,6.07
2019-05-07T18:11:36.597Z,7.80
2019-05-07T18:14:05.366Z,8.30
2019-05-07T18:16:36.780Z,8.57
2019-05-07T18:19:05.664Z,8.73
2019-05-07T18:21:34.441Z,7.97
2019-05-07T18:24:13.048Z,7.93
2019-05-07T18:26:34.083Z,8.67
2019-05-07T18:29:02.964Z,9.67
2019-05-07T18:31:45.336Z,9.67
2019-05-07T18:34:14.226Z,9.67
2019-05-07T18:36:42.993Z,9.73
2019-05-07T18:39:11.902Z,10.10
2019-05-07T18:41:41.720Z,9.10
2019-05-07T18:44:15.349Z,9.37
2019-05-07T18:46:43.195Z,9.70
2019-05-07T18:49:12.772Z,8.90
2019-05-07T18:51:42.649Z,8.83
2019-05-07T18:54:13.282Z,9.47
2019-05-07T18:56:42.432Z,9.77
2019-05-07T18:59:12.244Z,8.27
2019-05-07T19:01:42.974Z,8.17
2019-05-07T19:04:12.895Z,10.00
2019-05-07T19:06:42.436Z,9.90
2019-05-07T19:09:11.700Z,10.00
2019-05-07T19:11:42.588Z,10.33
2019-05-07T19:14:13.256Z,9.63
2019-05-07T19:16:43.067Z,8.77
2019-05-07T19:19:12.550Z,12.37
2019-05-07T19:21:42.307Z,10.77
2019-05-07T19:24:11.572Z,11.40
2019-05-07T19:26:42.108Z,10.77
2019-05-07T19:29:12.488Z,11.30
2019-05-07T19:31:42.050Z,11.37
2019-05-07T19:34:12.289Z,11.53
2019-05-07T19:36:42.409Z,10.40
2019-05-07T19:39:12.645Z,10.40
2019-05-07T19:41:43.044Z,11.00
2019-05-07T19:44:12.714Z,10.57
2019-05-07T19:46:41.690Z,9.77
2019-05-07T19:49:10.473Z,11.17
2019-05-07T19:51:39.247Z,10.30
2019-05-07T19:54:08.207Z,10.50
2019-05-07T19:56:37.713Z,9.37
2019-05-07T19:59:06.581Z,10.40
2019-05-07T20:01:37.111Z,9.83
2019-05-07T20:04:06.017Z,9.80
2019-05-07T20:06:34.809Z,9.50
2019-05-07T20:09:12.015Z,8.60
2019-05-07T20:11:46.787Z,9.73
2019-05-07T20:14:15.603Z,10.43
2019-05-07T20:16:46.052Z,9.77
2019-05-07T20:19:14.829Z,10.07
2019-05-07T20:21:52.368Z,10.23
2019-05-07T20:24:21.928Z,10.20
2019-05-07T20:26:52.651Z,9.10
2019-05-07T20:29:22.904Z,9.27
2019-05-07T20:31:53.206Z,9.63
2019-05-07T20:34:22.404Z,10.00
2019-05-07T20:36:51.854Z,9.17
2019-05-07T20:39:23.114Z,10.30
2019-05-07T20:41:52.624Z,10.17
2019-05-07T20:44:21.655Z,9.93
2019-05-07T20:46:50.447Z,9.87
2019-05-07T20:49:19.329Z,8.97
2019-05-07T20:51:48.195Z,9.93
2019-05-07T20:54:18.826Z,10.77
2019-05-07T20:56:49.253Z,10.23
2019-05-07T20:59:18.269Z,8.23
2019-05-07T21:01:47.141Z,9.10
2019-05-07T21:04:16.053Z,9.50
2019-05-07T21:06:44.863Z,9.20
2019-05-07T21:09:13.640Z,9.30
2019-05-07T21:11:43.027Z,9.50
2019-05-07T21:14:12.242Z,9.00
2019-05-07T21:16:42.477Z,9.90
2019-05-07T21:19:12.778Z,9.90
2019-05-07T21:21:42.291Z,9.37
2019-05-07T21:24:13.044Z,8.90
2019-05-07T21:26:42.379Z,8.67
2019-05-07T21:29:13.795Z,9.53
2019-05-07T21:31:43.113Z,10.03
2019-05-07T21:34:12.603Z,10.60
2019-05-07T21:36:43.236Z,9.53
2019-05-07T21:39:13.020Z,9.97
2019-05-07T21:41:42.719Z,10.07
2019-05-07T21:44:11.893Z,9.20
2019-05-07T21:46:42.517Z,10.50
2019-05-07T21:49:12.226Z,9.53
2019-05-07T21:51:41.558Z,9.40
2019-05-07T21:54:20.562Z,9.70
2019-05-07T21:56:52.249Z,10.23
2019-05-07T21:59:23.262Z,10.43
2019-05-07T22:02:02.057Z,10.17
2019-05-07T22:04:30.481Z,9.60
2019-05-07T22:06:59.271Z,10.33
2019-05-07T22:09:28.344Z,10.10
2019-05-07T22:11:57.255Z,10.43
2019-05-07T22:14:26.131Z,9.70
2019-05-07T22:16:54.949Z,10.43
2019-05-07T22:19:24.850Z,10.07
2019-05-07T22:21:53.739Z,10.53
2019-05-07T22:24:22.615Z,9.67
2019-05-07T22:26:51.408Z,10.30
2019-05-07T22:29:22.562Z,10.87
2019-05-07T22:32:09.072Z,10.33
2019-05-07T22:34:42.566Z,10.17
2019-05-07T22:37:12.561Z,10.77
2019-05-07T22:39:41.679Z,9.80
2019-05-07T22:42:11.852Z,10.40
2019-05-07T22:44:42.558Z,9.67
2019-05-07T22:47:22.747Z,10.20
2019-05-07T22:49:53.656Z,10.90
2019-05-07T22:52:22.529Z,9.70
2019-05-07T22:54:51.611Z,9.37
2019-05-07T22:57:25.191Z,9.87
2019-05-07T22:59:53.960Z,9.30
2019-05-07T23:02:23.094Z,10.03
2019-05-07T23:04:52.169Z,9.90
2019-05-07T23:07:27.025Z,10.00
2019-05-07T23:09:56.009Z,10.83
2019-05-07T23:12:26.451Z,9.37
2019-05-07T23:14:56.349Z,9.37
2019-05-07T23:17:25.239Z,10.53
2019-05-07T23:19:55.108Z,10.67
2019-05-07T23:22:24.352Z,10.97
2019-05-07T23:24:53.242Z,10.57
2019-05-07T23:27:22.610Z,9.83
2019-05-07T23:29:52.998Z,10.33
2019-05-07T23:32:22.241Z,11.47
2019-05-07T23:34:52.755Z,10.73
2019-05-07T23:37:22.447Z,10.57
2019-05-07T23:39:59.053Z,10.77
2019-05-07T23:42:47.737Z,11.27
2019-05-07T23:45:16.541Z,11.50
2019-05-07T23:47:45.332Z,11.17
2019-05-07T23:50:14.193Z,11.57
2019-05-07T23:52:44.169Z,10.97
2019-05-07T23:55:13.307Z,11.60
2019-05-07T23:57:43.084Z,11.53
